メインページ
METAR-TAF:

METAR-TAF

空港 :

福岡空港

福岡, 日本

緯度: 33-35N, 経度: 130-27E, 海抜: 9m

現時点の気象観測

当レポートは29分前の11:30(UTC)に作成
東/北東の風 5kt、北/北東から南東の間で変化する
気温 20°C
湿度 49%
気圧 1015 hPa
視程10km以上
高度2500ftの雲はほとんどない
高度14000ftの千切れ雲あり

METAR: RJFF 201130Z 07005KT 030V130 9999 FEW025 BKN140 20/09 Q1015 RMK 1CU025 7AC140 A2999

時間: 20:59 (11:59 UTC)

予報

当レポートは50分前の11:09(UTC)に作成
予報は20日の 12時(UTC)から 21日の 18時(UTC)まで有効
南東の風 8kt
視程10km以上
高度3000ftの雲はほとんどない

TAF: RJFF 201109Z 2012/2118 14008KT 9999 FEW030

4,000以上の空港の気象観測と天気予報(METAR報とTAF報)

利用可能な観測所は地図上に黄色い丸と赤い丸で示す。

丸の上にカーソルを重ねると観測所名を参照できる。

次にクリックすると気象観測と天気予報を参照できる。

マップの切り替え:黒色「×」印の緑ボタンをクリックして拡大、「-」印の緑ボタンをクリックして縮小、緑色の三角印をクリックして隣りの地図に切り替え


METAR-TAF: